sensor_id;sensor_type;location;lat;lon;timestamp;temperature;humidity
68235;DHT22;55052;52.056;5.296;2022-09-01T00:01:50;18.10;57.70
68235;DHT22;55052;52.056;5.296;2022-09-01T00:04:20;18.00;57.80
68235;DHT22;55052;52.056;5.296;2022-09-01T00:06:48;18.00;58.00
68235;DHT22;55052;52.056;5.296;2022-09-01T00:09:17;17.90;58.20
68235;DHT22;55052;52.056;5.296;2022-09-01T00:11:47;17.90;58.30
68235;DHT22;55052;52.056;5.296;2022-09-01T00:14:20;17.90;58.40
68235;DHT22;55052;52.056;5.296;2022-09-01T00:17:03;17.90;58.50
68235;DHT22;55052;52.056;5.296;2022-09-01T00:19:30;17.80;58.80
68235;DHT22;55052;52.056;5.296;2022-09-01T00:21:59;17.70;58.70
68235;DHT22;55052;52.056;5.296;2022-09-01T00:24:27;17.70;59.90
68235;DHT22;55052;52.056;5.296;2022-09-01T00:26:55;17.70;58.90
68235;DHT22;55052;52.056;5.296;2022-09-01T00:29:24;17.70;59.10
68235;DHT22;55052;52.056;5.296;2022-09-01T00:31:51;17.70;59.10
68235;DHT22;55052;52.056;5.296;2022-09-01T00:34:18;17.60;59.00
68235;DHT22;55052;52.056;5.296;2022-09-01T00:36:45;17.60;59.30
68235;DHT22;55052;52.056;5.296;2022-09-01T00:39:14;17.60;59.30
68235;DHT22;55052;52.056;5.296;2022-09-01T00:41:42;17.60;59.60
68235;DHT22;55052;52.056;5.296;2022-09-01T00:44:13;17.50;59.70
68235;DHT22;55052;52.056;5.296;2022-09-01T00:46:44;17.50;59.80
68235;DHT22;55052;52.056;5.296;2022-09-01T00:49:33;17.40;59.90
68235;DHT22;55052;52.056;5.296;2022-09-01T00:52:16;17.40;60.30
68235;DHT22;55052;52.056;5.296;2022-09-01T00:54:48;17.40;60.40
68235;DHT22;55052;52.056;5.296;2022-09-01T00:57:16;17.30;60.40
68235;DHT22;55052;52.056;5.296;2022-09-01T00:59:50;17.30;60.40
68235;DHT22;55052;52.056;5.296;2022-09-01T01:02:18;17.30;60.70
68235;DHT22;55052;52.056;5.296;2022-09-01T01:04:45;17.20;60.70
68235;DHT22;55052;52.056;5.296;2022-09-01T01:07:13;17.20;60.70
68235;DHT22;55052;52.056;5.296;2022-09-01T01:09:43;17.20;60.90
68235;DHT22;55052;52.056;5.296;2022-09-01T01:12:11;17.20;61.00
68235;DHT22;55052;52.056;5.296;2022-09-01T01:14:39;17.20;61.10
68235;DHT22;55052;52.056;5.296;2022-09-01T01:17:11;17.10;61.20
68235;DHT22;55052;52.056;5.296;2022-09-01T01:19:46;17.10;61.30
68235;DHT22;55052;52.056;5.296;2022-09-01T01:25:24;17.00;61.50
68235;DHT22;55052;52.056;5.296;2022-09-01T01:27:51;17.00;61.50
68235;DHT22;55052;52.056;5.296;2022-09-01T01:30:18;17.00;61.60
68235;DHT22;55052;52.056;5.296;2022-09-01T01:32:46;17.00;61.70
68235;DHT22;55052;52.056;5.296;2022-09-01T01:35:15;16.90;61.70
68235;DHT22;55052;52.056;5.296;2022-09-01T01:37:44;16.90;61.80
68235;DHT22;55052;52.056;5.296;2022-09-01T01:40:14;16.90;62.00
68235;DHT22;55052;52.056;5.296;2022-09-01T01:42:44;16.90;62.20
68235;DHT22;55052;52.056;5.296;2022-09-01T01:45:13;16.80;62.20
68235;DHT22;55052;52.056;5.296;2022-09-01T01:47:43;16.80;62.20
68235;DHT22;55052;52.056;5.296;2022-09-01T01:50:30;16.70;62.20
68235;DHT22;55052;52.056;5.296;2022-09-01T01:53:03;16.80;62.30
68235;DHT22;55052;52.056;5.296;2022-09-01T01:55:38;16.70;62.30
68235;DHT22;55052;52.056;5.296;2022-09-01T01:58:05;16.70;62.50
68235;DHT22;55052;52.056;5.296;2022-09-01T02:00:33;16.70;62.60
68235;DHT22;55052;52.056;5.296;2022-09-01T02:03:00;16.70;62.60
68235;DHT22;55052;52.056;5.296;2022-09-01T02:05:31;16.70;62.70
68235;DHT22;55052;52.056;5.296;2022-09-01T02:08:01;16.60;62.80
68235;DHT22;55052;52.056;5.296;2022-09-01T02:10:34;16.60;62.80
68235;DHT22;55052;52.056;5.296;2022-09-01T02:13:03;16.60;62.90
68235;DHT22;55052;52.056;5.296;2022-09-01T02:15:35;16.60;62.90
68235;DHT22;55052;52.056;5.296;2022-09-01T02:18:11;16.50;62.80
68235;DHT22;55052;52.056;5.296;2022-09-01T02:20:40;16.50;62.90
68235;DHT22;55052;52.056;5.296;2022-09-01T02:23:08;16.50;62.90
68235;DHT22;55052;52.056;5.296;2022-09-01T02:25:39;16.50;63.00
68235;DHT22;55052;52.056;5.296;2022-09-01T02:28:31;16.50;63.20
68235;DHT22;55052;52.056;5.296;2022-09-01T02:30:58;16.50;63.20
68235;DHT22;55052;52.056;5.296;2022-09-01T02:33:26;16.40;63.20
68235;DHT22;55052;52.056;5.296;2022-09-01T02:35:57;16.50;63.20
68235;DHT22;55052;52.056;5.296;2022-09-01T02:38:25;16.40;63.30
68235;DHT22;55052;52.056;5.296;2022-09-01T02:40:56;16.40;63.30
68235;DHT22;55052;52.056;5.296;2022-09-01T02:43:24;16.40;63.30
68235;DHT22;55052;52.056;5.296;2022-09-01T02:45:55;16.40;63.30
68235;DHT22;55052;52.056;5.296;2022-09-01T02:48:29;16.40;63.30
68235;DHT22;55052;52.056;5.296;2022-09-01T02:50:59;16.40;63.40
68235;DHT22;55052;52.056;5.296;2022-09-01T02:53:31;16.40;63.30
68235;DHT22;55052;52.056;5.296;2022-09-01T02:56:02;16.30;63.40
68235;DHT22;55052;52.056;5.296;2022-09-01T02:58:30;16.40;63.40
68235;DHT22;55052;52.056;5.296;2022-09-01T03:01:00;16.30;63.50
68235;DHT22;55052;52.056;5.296;2022-09-01T03:03:28;16.30;63.50
68235;DHT22;55052;52.056;5.296;2022-09-01T03:05:55;16.30;63.50
68235;DHT22;55052;52.056;5.296;2022-09-01T03:08:23;16.30;63.40
68235;DHT22;55052;52.056;5.296;2022-09-01T03:10:50;16.30;63.50
68235;DHT22;55052;52.056;5.296;2022-09-01T03:13:22;16.30;63.50
68235;DHT22;55052;52.056;5.296;2022-09-01T03:15:49;16.30;63.40
68235;DHT22;55052;52.056;5.296;2022-09-01T03:18:17;16.30;63.40
68235;DHT22;55052;52.056;5.296;2022-09-01T03:20:47;16.20;63.40
68235;DHT22;55052;52.056;5.296;2022-09-01T03:23:16;16.20;63.40
68235;DHT22;55052;52.056;5.296;2022-09-01T03:25:46;16.20;63.40
68235;DHT22;55052;52.056;5.296;2022-09-01T03:28:14;16.20;63.40
68235;DHT22;55052;52.056;5.296;2022-09-01T03:30:50;16.20;63.40
68235;DHT22;55052;52.056;5.296;2022-09-01T03:33:19;16.20;63.40
68235;DHT22;55052;52.056;5.296;2022-09-01T03:35:47;16.20;63.40
68235;DHT22;55052;52.056;5.296;2022-09-01T03:38:15;16.20;63.40
68235;DHT22;55052;52.056;5.296;2022-09-01T03:40:57;16.20;63.50
68235;DHT22;55052;52.056;5.296;2022-09-01T03:43:29;16.20;63.40
68235;DHT22;55052;52.056;5.296;2022-09-01T03:46:01;16.20;63.40
68235;DHT22;55052;52.056;5.296;2022-09-01T03:48:29;16.20;63.40
68235;DHT22;55052;52.056;5.296;2022-09-01T03:50:59;16.20;63.40
68235;DHT22;55052;52.056;5.296;2022-09-01T03:53:31;16.20;63.40
68235;DHT22;55052;52.056;5.296;2022-09-01T03:55:58;16.20;63.40
68235;DHT22;55052;52.056;5.296;2022-09-01T03:58:25;16.10;64.30
68235;DHT22;55052;52.056;5.296;2022-09-01T04:00:55;16.20;63.60
68235;DHT22;55052;52.056;5.296;2022-09-01T04:03:26;16.20;63.50
68235;DHT22;55052;52.056;5.296;2022-09-01T04:05:59;16.10;63.50
68235;DHT22;55052;52.056;5.296;2022-09-01T04:08:26;16.10;63.40
68235;DHT22;55052;52.056;5.296;2022-09-01T04:11:09;16.10;63.40
68235;DHT22;55052;52.056;5.296;2022-09-01T04:13:40;16.10;63.40
68235;DHT22;55052;52.056;5.296;2022-09-01T04:16:29;16.10;63.40
68235;DHT22;55052;52.056;5.296;2022-09-01T04:19:17;16.10;63.20
68235;DHT22;55052;52.056;5.296;2022-09-01T04:21:57;16.10;63.30
68235;DHT22;55052;52.056;5.296;2022-09-01T04:24:27;16.10;63.40
68235;DHT22;55052;52.056;5.296;2022-09-01T04:26:56;16.10;63.30
68235;DHT22;55052;52.056;5.296;2022-09-01T04:29:25;16.10;63.30
68235;DHT22;55052;52.056;5.296;2022-09-01T04:31:56;16.10;63.20
68235;DHT22;55052;52.056;5.296;2022-09-01T04:34:29;16.10;63.20
68235;DHT22;55052;52.056;5.296;2022-09-01T04:37:16;16.10;63.20
68235;DHT22;55052;52.056;5.296;2022-09-01T04:39:52;16.10;63.20
68235;DHT22;55052;52.056;5.296;2022-09-01T04:42:24;16.10;63.10
68235;DHT22;55052;52.056;5.296;2022-09-01T04:44:52;16.10;63.10
68235;DHT22;55052;52.056;5.296;2022-09-01T04:47:35;16.10;63.20
68235;DHT22;55052;52.056;5.296;2022-09-01T04:50:09;16.10;63.10
68235;DHT22;55052;52.056;5.296;2022-09-01T04:52:40;16.00;63.00
68235;DHT22;55052;52.056;5.296;2022-09-01T04:55:10;16.00;63.00
68235;DHT22;55052;52.056;5.296;2022-09-01T04:57:47;16.00;63.10
68235;DHT22;55052;52.056;5.296;2022-09-01T05:00:17;16.00;63.00
68235;DHT22;55052;52.056;5.296;2022-09-01T05:02:51;16.00;63.10
68235;DHT22;55052;52.056;5.296;2022-09-01T05:05:20;16.00;63.00
68235;DHT22;55052;52.056;5.296;2022-09-01T05:07:48;16.00;62.90
68235;DHT22;55052;52.056;5.296;2022-09-01T05:10:22;16.00;62.90
68235;DHT22;55052;52.056;5.296;2022-09-01T05:12:54;16.00;63.00
68235;DHT22;55052;52.056;5.296;2022-09-01T05:15:22;15.90;63.00
68235;DHT22;55052;52.056;5.296;2022-09-01T05:17:49;15.90;62.80
68235;DHT22;55052;52.056;5.296;2022-09-01T05:20:18;15.90;62.90
68235;DHT22;55052;52.056;5.296;2022-09-01T05:22:46;15.90;62.80
68235;DHT22;55052;52.056;5.296;2022-09-01T05:25:12;15.90;62.90
68235;DHT22;55052;52.056;5.296;2022-09-01T05:27:41;15.90;62.70
68235;DHT22;55052;52.056;5.296;2022-09-01T05:30:08;16.00;62.80
68235;DHT22;55052;52.056;5.296;2022-09-01T05:32:36;16.00;62.80
68235;DHT22;55052;52.056;5.296;2022-09-01T05:35:05;16.00;62.70
68235;DHT22;55052;52.056;5.296;2022-09-01T05:37:36;16.00;62.70
68235;DHT22;55052;52.056;5.296;2022-09-01T05:40:07;16.00;62.60
68235;DHT22;55052;52.056;5.296;2022-09-01T05:42:37;16.00;62.70
68235;DHT22;55052;52.056;5.296;2022-09-01T05:45:05;16.00;62.60
68235;DHT22;55052;52.056;5.296;2022-09-01T05:47:32;16.00;62.60
68235;DHT22;55052;52.056;5.296;2022-09-01T05:50:03;16.00;62.60
68235;DHT22;55052;52.056;5.296;2022-09-01T05:52:32;16.00;62.60
68235;DHT22;55052;52.056;5.296;2022-09-01T05:54:59;16.00;62.50
68235;DHT22;55052;52.056;5.296;2022-09-01T05:57:26;16.10;62.50
68235;DHT22;55052;52.056;5.296;2022-09-01T06:00:06;16.10;62.40
68235;DHT22;55052;52.056;5.296;2022-09-01T06:02:39;16.10;62.30
68235;DHT22;55052;52.056;5.296;2022-09-01T06:05:06;16.20;62.40
68235;DHT22;55052;52.056;5.296;2022-09-01T06:07:34;16.20;62.10
68235;DHT22;55052;52.056;5.296;2022-09-01T06:10:04;16.20;62.00
68235;DHT22;55052;52.056;5.296;2022-09-01T06:12:31;16.30;62.00
68235;DHT22;55052;52.056;5.296;2022-09-01T06:14:59;16.30;61.90
68235;DHT22;55052;52.056;5.296;2022-09-01T06:17:27;16.40;61.80
68235;DHT22;55052;52.056;5.296;2022-09-01T06:19:57;16.40;61.60
68235;DHT22;55052;52.056;5.296;2022-09-01T06:22:25;16.40;61.40
68235;DHT22;55052;52.056;5.296;2022-09-01T06:24:53;16.50;61.40
68235;DHT22;55052;52.056;5.296;2022-09-01T06:27:27;16.50;61.30
68235;DHT22;55052;52.056;5.296;2022-09-01T06:29:54;16.60;61.30
68235;DHT22;55052;52.056;5.296;2022-09-01T06:32:23;16.60;61.20
68235;DHT22;55052;52.056;5.296;2022-09-01T06:34:51;16.60;61.10
68235;DHT22;55052;52.056;5.296;2022-09-01T06:37:18;16.70;61.10
68235;DHT22;55052;52.056;5.296;2022-09-01T06:39:49;16.70;61.00
68235;DHT22;55052;52.056;5.296;2022-09-01T06:42:16;16.80;61.00
68235;DHT22;55052;52.056;5.296;2022-09-01T06:44:44;16.80;61.00
68235;DHT22;55052;52.056;5.296;2022-09-01T06:47:11;16.80;60.90
68235;DHT22;55052;52.056;5.296;2022-09-01T06:49:38;16.90;60.90
68235;DHT22;55052;52.056;5.296;2022-09-01T06:52:06;16.90;60.80
68235;DHT22;55052;52.056;5.296;2022-09-01T06:54:34;16.90;60.80
68235;DHT22;55052;52.056;5.296;2022-09-01T06:57:02;17.00;60.60
68235;DHT22;55052;52.056;5.296;2022-09-01T06:59:49;17.00;60.50
68235;DHT22;55052;52.056;5.296;2022-09-01T07:02:19;17.00;60.50
68235;DHT22;55052;52.056;5.296;2022-09-01T07:05:06;17.10;60.50
68235;DHT22;55052;52.056;5.296;2022-09-01T07:07:33;17.10;60.40
68235;DHT22;55052;52.056;5.296;2022-09-01T07:10:22;17.20;60.40
68235;DHT22;55052;52.056;5.296;2022-09-01T07:12:51;17.30;60.40
68235;DHT22;55052;52.056;5.296;2022-09-01T07:15:42;17.30;60.40
68235;DHT22;55052;52.056;5.296;2022-09-01T07:18:30;17.40;60.20
68235;DHT22;55052;52.056;5.296;2022-09-01T07:20:58;17.40;60.20
68235;DHT22;55052;52.056;5.296;2022-09-01T07:23:45;17.50;60.10
68235;DHT22;55052;52.056;5.296;2022-09-01T07:26:34;17.60;60.00
68235;DHT22;55052;52.056;5.296;2022-09-01T07:29:04;17.70;59.90
68235;DHT22;55052;52.056;5.296;2022-09-01T07:31:38;17.80;59.60
68235;DHT22;55052;52.056;5.296;2022-09-01T07:34:26;17.80;59.40
68235;DHT22;55052;52.056;5.296;2022-09-01T07:37:14;17.90;59.40
68235;DHT22;55052;52.056;5.296;2022-09-01T07:40:01;18.00;59.10
68235;DHT22;55052;52.056;5.296;2022-09-01T07:42:54;18.20;58.70
68235;DHT22;55052;52.056;5.296;2022-09-01T07:45:42;18.30;58.50
68235;DHT22;55052;52.056;5.296;2022-09-01T07:48:25;18.40;58.10
68235;DHT22;55052;52.056;5.296;2022-09-01T07:51:13;18.50;57.90
68235;DHT22;55052;52.056;5.296;2022-09-01T07:54:04;18.60;57.90
68235;DHT22;55052;52.056;5.296;2022-09-01T07:56:31;18.70;57.70
68235;DHT22;55052;52.056;5.296;2022-09-01T07:59:05;18.80;57.40
68235;DHT22;55052;52.056;5.296;2022-09-01T08:01:32;19.00;57.00
68235;DHT22;55052;52.056;5.296;2022-09-01T08:03:59;19.10;56.60
68235;DHT22;55052;52.056;5.296;2022-09-01T08:06:28;19.10;56.10
68235;DHT22;55052;52.056;5.296;2022-09-01T08:09:04;19.30;55.80
68235;DHT22;55052;52.056;5.296;2022-09-01T08:11:51;19.40;55.40
68235;DHT22;55052;52.056;5.296;2022-09-01T08:14:28;19.50;55.30
68235;DHT22;55052;52.056;5.296;2022-09-01T08:16:59;19.60;54.90
68235;DHT22;55052;52.056;5.296;2022-09-01T08:19:43;19.70;54.90
68235;DHT22;55052;52.056;5.296;2022-09-01T08:22:09;19.80;54.50
68235;DHT22;55052;52.056;5.296;2022-09-01T08:24:36;19.90;54.40
68235;DHT22;55052;52.056;5.296;2022-09-01T08:27:03;20.00;54.10
68235;DHT22;55052;52.056;5.296;2022-09-01T08:29:30;20.10;53.90
68235;DHT22;55052;52.056;5.296;2022-09-01T08:31:58;20.20;53.60
68235;DHT22;55052;52.056;5.296;2022-09-01T08:34:25;20.30;53.40
68235;DHT22;55052;52.056;5.296;2022-09-01T08:36:52;20.40;53.40
68235;DHT22;55052;52.056;5.296;2022-09-01T08:39:19;20.50;53.30
68235;DHT22;55052;52.056;5.296;2022-09-01T08:47:06;20.90;51.20
68235;DHT22;55052;52.056;5.296;2022-09-01T08:49:38;21.00;51.20
68235;DHT22;55052;52.056;5.296;2022-09-01T08:52:33;21.10;51.00
68235;DHT22;55052;52.056;5.296;2022-09-01T08:55:16;21.20;50.50
68235;DHT22;55052;52.056;5.296;2022-09-01T08:57:49;21.30;50.30
68235;DHT22;55052;52.056;5.296;2022-09-01T09:00:28;21.40;50.90
68235;DHT22;55052;52.056;5.296;2022-09-01T09:11:47;21.80;49.00
68235;DHT22;55052;52.056;5.296;2022-09-01T09:14:45;21.90;48.60
68235;DHT22;55052;52.056;5.296;2022-09-01T09:17:16;22.00;48.30
68235;DHT22;55052;52.056;5.296;2022-09-01T09:19:45;22.10;48.60
68235;DHT22;55052;52.056;5.296;2022-09-01T09:22:15;22.10;48.20
68235;DHT22;55052;52.056;5.296;2022-09-01T09:27:29;22.30;47.40
68235;DHT22;55052;52.056;5.296;2022-09-01T09:29:59;22.40;46.80
68235;DHT22;55052;52.056;5.296;2022-09-01T09:32:51;22.50;47.00
68235;DHT22;55052;52.056;5.296;2022-09-01T09:35:41;22.50;46.60
68235;DHT22;55052;52.056;5.296;2022-09-01T09:43:59;22.80;45.60
68235;DHT22;55052;52.056;5.296;2022-09-01T09:51:32;23.00;44.20
68235;DHT22;55052;52.056;5.296;2022-09-01T09:54:27;23.10;44.90
68235;DHT22;55052;52.056;5.296;2022-09-01T10:02:33;23.30;43.20
68235;DHT22;55052;52.056;5.296;2022-09-01T10:08:10;23.50;43.00
68235;DHT22;55052;52.056;5.296;2022-09-01T10:10:42;23.50;42.90
68235;DHT22;55052;52.056;5.296;2022-09-01T10:13:15;23.60;42.20
68235;DHT22;55052;52.056;5.296;2022-09-01T10:15:50;23.60;41.50
68235;DHT22;55052;52.056;5.296;2022-09-01T10:18:24;23.70;40.70
68235;DHT22;55052;52.056;5.296;2022-09-01T10:23:29;23.80;40.10
68235;DHT22;55052;52.056;5.296;2022-09-01T10:26:21;23.90;40.60
68235;DHT22;55052;52.056;5.296;2022-09-01T10:28:56;24.00;41.00
68235;DHT22;55052;52.056;5.296;2022-09-01T10:31:26;24.10;40.30
68235;DHT22;55052;52.056;5.296;2022-09-01T10:33:59;24.10;40.40
68235;DHT22;55052;52.056;5.296;2022-09-01T10:36:28;24.20;39.90
68235;DHT22;55052;52.056;5.296;2022-09-01T10:38:56;24.30;39.40
68235;DHT22;55052;52.056;5.296;2022-09-01T10:44:10;24.40;39.40
68235;DHT22;55052;52.056;5.296;2022-09-01T10:46:45;24.50;39.50
68235;DHT22;55052;52.056;5.296;2022-09-01T10:51:56;24.60;38.50
68235;DHT22;55052;52.056;5.296;2022-09-01T10:54:54;24.70;38.40
68235;DHT22;55052;52.056;5.296;2022-09-01T10:57:43;24.70;37.30
68235;DHT22;55052;52.056;5.296;2022-09-01T11:08:47;24.90;37.40
68235;DHT22;55052;52.056;5.296;2022-09-01T11:13:59;25.00;37.10
68235;DHT22;55052;52.056;5.296;2022-09-01T11:22:23;25.20;36.60
68235;DHT22;55052;52.056;5.296;2022-09-01T11:30:22;25.40;35.70
68235;DHT22;55052;52.056;5.296;2022-09-01T11:32:56;25.40;35.30
68235;DHT22;55052;52.056;5.296;2022-09-01T11:35:25;25.50;35.50
68235;DHT22;55052;52.056;5.296;2022-09-01T11:38:01;25.50;35.40
68235;DHT22;55052;52.056;5.296;2022-09-01T11:40:31;25.50;35.10
68235;DHT22;55052;52.056;5.296;2022-09-01T11:43:05;25.60;35.10
68235;DHT22;55052;52.056;5.296;2022-09-01T11:48:21;25.70;34.40
68235;DHT22;55052;52.056;5.296;2022-09-01T11:50:57;25.70;34.70
68235;DHT22;55052;52.056;5.296;2022-09-01T11:53:25;25.70;34.20
68235;DHT22;55052;52.056;5.296;2022-09-01T11:55:54;25.80;34.50
68235;DHT22;55052;52.056;5.296;2022-09-01T12:01:10;25.80;33.80
68235;DHT22;55052;52.056;5.296;2022-09-01T12:03:37;25.80;33.70
68235;DHT22;55052;52.056;5.296;2022-09-01T12:06:06;25.90;33.70
68235;DHT22;55052;52.056;5.296;2022-09-01T12:08:40;25.90;33.40
68235;DHT22;55052;52.056;5.296;2022-09-01T12:11:29;25.90;33.00
68235;DHT22;55052;52.056;5.296;2022-09-01T12:14:08;26.00;32.90
68235;DHT22;55052;52.056;5.296;2022-09-01T12:16:39;26.00;33.30
68235;DHT22;55052;52.056;5.296;2022-09-01T12:19:22;26.00;33.70
68235;DHT22;55052;52.056;5.296;2022-09-01T12:22:05;26.10;33.30
68235;DHT22;55052;52.056;5.296;2022-09-01T12:24:35;26.20;32.90
68235;DHT22;55052;52.056;5.296;2022-09-01T12:27:02;26.20;33.10
68235;DHT22;55052;52.056;5.296;2022-09-01T12:29:30;26.20;32.80
68235;DHT22;55052;52.056;5.296;2022-09-01T12:31:59;26.30;32.40
68235;DHT22;55052;52.056;5.296;2022-09-01T12:39:47;26.30;32.50
68235;DHT22;55052;52.056;5.296;2022-09-01T12:44:50;26.40;32.20
68235;DHT22;55052;52.056;5.296;2022-09-01T12:55:17;26.60;32.00
68235;DHT22;55052;52.056;5.296;2022-09-01T12:58:06;26.70;32.30
68235;DHT22;55052;52.056;5.296;2022-09-01T13:00:35;26.70;32.80
68235;DHT22;55052;52.056;5.296;2022-09-01T13:03:12;26.80;33.10
68235;DHT22;55052;52.056;5.296;2022-09-01T13:05:40;26.80;32.50
68235;DHT22;55052;52.056;5.296;2022-09-01T13:08:16;26.90;32.30
68235;DHT22;55052;52.056;5.296;2022-09-01T13:10:50;26.90;31.80
68235;DHT22;55052;52.056;5.296;2022-09-01T13:13:17;26.90;31.70
68235;DHT22;55052;52.056;5.296;2022-09-01T13:15:47;26.90;31.60
68235;DHT22;55052;52.056;5.296;2022-09-01T13:18:15;27.00;31.60
68235;DHT22;55052;52.056;5.296;2022-09-01T13:20:43;27.00;31.60
68235;DHT22;55052;52.056;5.296;2022-09-01T13:23:10;27.00;31.50
68235;DHT22;55052;52.056;5.296;2022-09-01T13:25:38;27.10;31.50
68235;DHT22;55052;52.056;5.296;2022-09-01T13:28:06;27.10;31.80
68235;DHT22;55052;52.056;5.296;2022-09-01T13:30:33;27.20;31.70
68235;DHT22;55052;52.056;5.296;2022-09-01T13:33:00;27.30;31.30
68235;DHT22;55052;52.056;5.296;2022-09-01T13:35:48;27.30;31.00
68235;DHT22;55052;52.056;5.296;2022-09-01T13:38:16;27.40;31.40
68235;DHT22;55052;52.056;5.296;2022-09-01T13:40:44;27.50;31.40
68235;DHT22;55052;52.056;5.296;2022-09-01T13:43:14;27.70;31.20
68235;DHT22;55052;52.056;5.296;2022-09-01T13:45:41;27.80;31.50
68235;DHT22;55052;52.056;5.296;2022-09-01T13:48:11;27.90;30.90
68235;DHT22;55052;52.056;5.296;2022-09-01T13:50:47;28.10;30.90
68235;DHT22;55052;52.056;5.296;2022-09-01T13:53:38;28.30;30.60
68235;DHT22;55052;52.056;5.296;2022-09-01T13:56:04;28.60;31.00
68235;DHT22;55052;52.056;5.296;2022-09-01T13:58:31;29.00;30.40
68235;DHT22;55052;52.056;5.296;2022-09-01T14:00:58;29.40;29.60
68235;DHT22;55052;52.056;5.296;2022-09-01T14:03:25;29.90;29.50
68235;DHT22;55052;52.056;5.296;2022-09-01T14:05:52;30.40;29.10
68235;DHT22;55052;52.056;5.296;2022-09-01T14:08:20;30.70;28.90
68235;DHT22;55052;52.056;5.296;2022-09-01T14:10:50;31.00;28.70
68235;DHT22;55052;52.056;5.296;2022-09-01T14:13:19;31.30;28.70
68235;DHT22;55052;52.056;5.296;2022-09-01T14:15:47;31.60;28.20
68235;DHT22;55052;52.056;5.296;2022-09-01T14:18:15;31.80;28.40
68235;DHT22;55052;52.056;5.296;2022-09-01T14:20:45;32.00;28.60
68235;DHT22;55052;52.056;5.296;2022-09-01T14:23:13;32.20;27.90
68235;DHT22;55052;52.056;5.296;2022-09-01T14:25:43;32.40;27.80
68235;DHT22;55052;52.056;5.296;2022-09-01T14:28:11;32.50;27.80
68235;DHT22;55052;52.056;5.296;2022-09-01T14:30:40;32.50;27.40
68235;DHT22;55052;52.056;5.296;2022-09-01T14:33:09;32.50;27.10
68235;DHT22;55052;52.056;5.296;2022-09-01T14:35:41;32.50;27.70
68235;DHT22;55052;52.056;5.296;2022-09-01T14:38:09;32.50;27.40
68235;DHT22;55052;52.056;5.296;2022-09-01T14:40:37;32.30;27.40
68235;DHT22;55052;52.056;5.296;2022-09-01T14:43:06;32.10;27.30
68235;DHT22;55052;52.056;5.296;2022-09-01T14:45:35;31.90;27.40
68235;DHT22;55052;52.056;5.296;2022-09-01T14:48:05;31.60;27.20
68235;DHT22;55052;52.056;5.296;2022-09-01T14:50:32;31.30;27.10
68235;DHT22;55052;52.056;5.296;2022-09-01T14:53:01;31.10;27.20
68235;DHT22;55052;52.056;5.296;2022-09-01T14:55:29;30.80;28.00
68235;DHT22;55052;52.056;5.296;2022-09-01T14:57:57;30.50;27.00
68235;DHT22;55052;52.056;5.296;2022-09-01T15:00:25;30.30;27.40
68235;DHT22;55052;52.056;5.296;2022-09-01T15:02:53;30.10;27.40
68235;DHT22;55052;52.056;5.296;2022-09-01T15:05:21;29.90;27.80
68235;DHT22;55052;52.056;5.296;2022-09-01T15:07:48;29.70;27.70
68235;DHT22;55052;52.056;5.296;2022-09-01T15:10:17;29.50;27.60
68235;DHT22;55052;52.056;5.296;2022-09-01T15:12:53;29.30;27.80
68235;DHT22;55052;52.056;5.296;2022-09-01T15:15:20;29.20;27.90
68235;DHT22;55052;52.056;5.296;2022-09-01T15:17:46;29.10;28.10
68235;DHT22;55052;52.056;5.296;2022-09-01T15:20:13;29.00;28.30
68235;DHT22;55052;52.056;5.296;2022-09-01T15:23:03;28.80;28.50
68235;DHT22;55052;52.056;5.296;2022-09-01T15:25:30;28.60;28.60
68235;DHT22;55052;52.056;5.296;2022-09-01T15:27:57;28.50;28.80
68235;DHT22;55052;52.056;5.296;2022-09-01T15:30:24;28.40;28.90
68235;DHT22;55052;52.056;5.296;2022-09-01T15:32:52;28.30;29.00
68235;DHT22;55052;52.056;5.296;2022-09-01T15:35:20;28.20;28.90
68235;DHT22;55052;52.056;5.296;2022-09-01T15:37:49;28.20;28.80
68235;DHT22;55052;52.056;5.296;2022-09-01T15:40:17;28.20;28.80
68235;DHT22;55052;52.056;5.296;2022-09-01T15:42:44;28.10;29.00
68235;DHT22;55052;52.056;5.296;2022-09-01T15:45:15;28.10;29.10
68235;DHT22;55052;52.056;5.296;2022-09-01T15:47:43;28.00;29.10
68235;DHT22;55052;52.056;5.296;2022-09-01T15:50:12;28.00;29.40
68235;DHT22;55052;52.056;5.296;2022-09-01T15:52:55;28.00;29.50
68235;DHT22;55052;52.056;5.296;2022-09-01T15:55:47;28.00;29.30
68235;DHT22;55052;52.056;5.296;2022-09-01T15:58:16;28.20;29.20
68235;DHT22;55052;52.056;5.296;2022-09-01T16:00:44;28.20;29.30
68235;DHT22;55052;52.056;5.296;2022-09-01T16:03:11;28.20;29.10
68235;DHT22;55052;52.056;5.296;2022-09-01T16:05:39;28.20;29.00
68235;DHT22;55052;52.056;5.296;2022-09-01T16:08:07;28.20;29.00
68235;DHT22;55052;52.056;5.296;2022-09-01T16:10:36;28.20;29.20
68235;DHT22;55052;52.056;5.296;2022-09-01T16:13:05;28.20;28.90
68235;DHT22;55052;52.056;5.296;2022-09-01T16:15:33;28.00;28.90
68235;DHT22;55052;52.056;5.296;2022-09-01T16:21:16;28.00;29.10
68235;DHT22;55052;52.056;5.296;2022-09-01T16:23:50;27.90;29.00
68235;DHT22;55052;52.056;5.296;2022-09-01T16:26:19;27.90;29.20
68235;DHT22;55052;52.056;5.296;2022-09-01T16:28:48;27.90;29.40
68235;DHT22;55052;52.056;5.296;2022-09-01T16:31:20;27.80;29.50
68235;DHT22;55052;52.056;5.296;2022-09-01T16:33:50;27.80;29.30
68235;DHT22;55052;52.056;5.296;2022-09-01T16:47:33;27.90;29.40
68235;DHT22;55052;52.056;5.296;2022-09-01T16:58:23;27.90;29.60
68235;DHT22;55052;52.056;5.296;2022-09-01T17:01:02;27.90;29.60
68235;DHT22;55052;52.056;5.296;2022-09-01T17:03:40;27.80;29.40
68235;DHT22;55052;52.056;5.296;2022-09-01T17:06:29;27.80;29.60
68235;DHT22;55052;52.056;5.296;2022-09-01T17:09:29;27.80;29.70
68235;DHT22;55052;52.056;5.296;2022-09-01T17:14:43;27.70;29.60
68235;DHT22;55052;52.056;5.296;2022-09-01T17:17:19;27.60;29.90
68235;DHT22;55052;52.056;5.296;2022-09-01T17:19:47;27.50;29.70
68235;DHT22;55052;52.056;5.296;2022-09-01T17:22:19;27.40;30.00
68235;DHT22;55052;52.056;5.296;2022-09-01T17:24:57;27.30;30.20
68235;DHT22;55052;52.056;5.296;2022-09-01T17:27:37;27.30;30.20
68235;DHT22;55052;52.056;5.296;2022-09-01T17:30:08;27.10;30.20
68235;DHT22;55052;52.056;5.296;2022-09-01T17:38:26;26.90;30.80
68235;DHT22;55052;52.056;5.296;2022-09-01T17:44:32;26.60;31.10
68235;DHT22;55052;52.056;5.296;2022-09-01T17:47:41;26.50;31.40
68235;DHT22;55052;52.056;5.296;2022-09-01T17:53:11;26.40;31.90
68235;DHT22;55052;52.056;5.296;2022-09-01T17:56:03;26.20;32.20
68235;DHT22;55052;52.056;5.296;2022-09-01T17:58:50;26.20;32.40
68235;DHT22;55052;52.056;5.296;2022-09-01T18:03:56;26.00;32.80
68235;DHT22;55052;52.056;5.296;2022-09-01T18:06:47;25.90;33.20
68235;DHT22;55052;52.056;5.296;2022-09-01T18:09:19;25.80;33.60
68235;DHT22;55052;52.056;5.296;2022-09-01T18:11:54;25.70;33.70
68235;DHT22;55052;52.056;5.296;2022-09-01T18:14:34;25.60;34.00